sensor_id;sensor_type;location;lat;lon;timestamp;pressure;altitude;pressure_sealevel;temperature;humidity
47913;BME280;33676;51.006;17.180;2022-07-29T00:01:43;100457.23;;;15.53;64.00
47913;BME280;33676;51.006;17.180;2022-07-29T00:04:12;100457.77;;;15.49;64.26
47913;BME280;33676;51.006;17.180;2022-07-29T00:06:41;100457.27;;;15.46;64.39
47913;BME280;33676;51.006;17.180;2022-07-29T00:09:10;100461.31;;;15.42;64.31
47913;BME280;33676;51.006;17.180;2022-07-29T00:11:38;100459.79;;;15.39;64.49
47913;BME280;33676;51.006;17.180;2022-07-29T00:14:08;100464.20;;;15.36;64.70
47913;BME280;33676;51.006;17.180;2022-07-29T00:16:36;100465.99;;;15.32;64.83
47913;BME280;33676;51.006;17.180;2022-07-29T00:19:05;100468.31;;;15.28;64.89
47913;BME280;33676;51.006;17.180;2022-07-29T00:21:35;100470.33;;;15.25;65.07
47913;BME280;33676;51.006;17.180;2022-07-29T00:24:03;100474.07;;;15.22;65.41
47913;BME280;33676;51.006;17.180;2022-07-29T00:26:32;100470.32;;;15.19;65.33
47913;BME280;33676;51.006;17.180;2022-07-29T00:29:03;100468.05;;;15.15;65.39
47913;BME280;33676;51.006;17.180;2022-07-29T00:31:52;100463.45;;;15.12;65.68
47913;BME280;33676;51.006;17.180;2022-07-29T00:34:21;100456.73;;;15.08;65.81
47913;BME280;33676;51.006;17.180;2022-07-29T00:37:08;100453.73;;;15.05;66.10
47913;BME280;33676;51.006;17.180;2022-07-29T00:39:37;100449.46;;;15.02;66.13
47913;BME280;33676;51.006;17.180;2022-07-29T00:42:05;100452.16;;;14.99;66.23
47913;BME280;33676;51.006;17.180;2022-07-29T00:44:41;100449.98;;;14.97;66.47
47913;BME280;33676;51.006;17.180;2022-07-29T00:47:11;100452.02;;;14.93;66.73
47913;BME280;33676;51.006;17.180;2022-07-29T00:49:41;100446.52;;;14.90;66.97
47913;BME280;33676;51.006;17.180;2022-07-29T00:52:11;100446.72;;;14.86;67.05
47913;BME280;33676;51.006;17.180;2022-07-29T00:54:44;100447.92;;;14.83;67.36
47913;BME280;33676;51.006;17.180;2022-07-29T00:57:13;100444.54;;;14.79;67.41
47913;BME280;33676;51.006;17.180;2022-07-29T00:59:42;100443.55;;;14.77;67.39
47913;BME280;33676;51.006;17.180;2022-07-29T01:02:10;100446.55;;;14.75;67.60
47913;BME280;33676;51.006;17.180;2022-07-29T01:04:39;100445.74;;;14.72;67.38
47913;BME280;33676;51.006;17.180;2022-07-29T01:07:09;100449.70;;;14.69;67.72
47913;BME280;33676;51.006;17.180;2022-07-29T01:09:39;100450.98;;;14.67;67.54
47913;BME280;33676;51.006;17.180;2022-07-29T01:12:17;100454.31;;;14.65;67.79
47913;BME280;33676;51.006;17.180;2022-07-29T01:14:47;100450.01;;;14.62;67.98
47913;BME280;33676;51.006;17.180;2022-07-29T01:17:44;100445.77;;;14.58;68.04
47913;BME280;33676;51.006;17.180;2022-07-29T01:29:14;100442.58;;;14.45;68.36
47913;BME280;33676;51.006;17.180;2022-07-29T01:32:16;100442.11;;;14.43;68.52
47913;BME280;33676;51.006;17.180;2022-07-29T01:35:36;100442.83;;;14.39;68.66
47913;BME280;33676;51.006;17.180;2022-07-29T01:38:17;100434.02;;;14.33;69.02
47913;BME280;33676;51.006;17.180;2022-07-29T01:43:39;100430.55;;;14.23;69.31
47913;BME280;33676;51.006;17.180;2022-07-29T01:46:14;100434.88;;;14.18;69.73
47913;BME280;33676;51.006;17.180;2022-07-29T01:48:54;100434.22;;;14.13;69.68
47913;BME280;33676;51.006;17.180;2022-07-29T01:51:38;100429.66;;;14.09;69.98
47913;BME280;33676;51.006;17.180;2022-07-29T01:54:20;100430.48;;;14.06;70.00
47913;BME280;33676;51.006;17.180;2022-07-29T01:56:51;100430.75;;;14.03;70.15
47913;BME280;33676;51.006;17.180;2022-07-29T01:59:23;100430.32;;;14.00;70.32
47913;BME280;33676;51.006;17.180;2022-07-29T02:01:58;100425.38;;;13.97;70.46
47913;BME280;33676;51.006;17.180;2022-07-29T02:04:28;100424.67;;;13.93;70.51
47913;BME280;33676;51.006;17.180;2022-07-29T02:07:04;100429.39;;;13.89;70.89
47913;BME280;33676;51.006;17.180;2022-07-29T02:09:36;100431.93;;;13.84;70.92
47913;BME280;33676;51.006;17.180;2022-07-29T02:12:07;100426.34;;;13.76;70.90
47913;BME280;33676;51.006;17.180;2022-07-29T02:14:41;100427.89;;;13.71;71.06
47913;BME280;33676;51.006;17.180;2022-07-29T02:17:13;100421.71;;;13.67;71.16
47913;BME280;33676;51.006;17.180;2022-07-29T02:19:47;100422.02;;;13.64;71.16
47913;BME280;33676;51.006;17.180;2022-07-29T02:22:18;100418.39;;;13.61;71.46
47913;BME280;33676;51.006;17.180;2022-07-29T02:24:48;100412.86;;;13.58;71.66
47913;BME280;33676;51.006;17.180;2022-07-29T02:27:19;100411.36;;;13.53;71.81
47913;BME280;33676;51.006;17.180;2022-07-29T02:29:50;100413.88;;;13.48;71.82
47913;BME280;33676;51.006;17.180;2022-07-29T02:32:21;100418.77;;;13.45;71.97
47913;BME280;33676;51.006;17.180;2022-07-29T02:34:52;100412.16;;;13.40;72.17
47913;BME280;33676;51.006;17.180;2022-07-29T02:37:21;100412.06;;;13.37;72.25
47913;BME280;33676;51.006;17.180;2022-07-29T02:39:53;100415.21;;;13.35;72.32
47913;BME280;33676;51.006;17.180;2022-07-29T02:42:23;100417.37;;;13.33;72.57
47913;BME280;33676;51.006;17.180;2022-07-29T02:44:55;100418.44;;;13.31;72.56
47913;BME280;33676;51.006;17.180;2022-07-29T02:47:34;100419.34;;;13.28;72.74
47913;BME280;33676;51.006;17.180;2022-07-29T02:50:27;100421.56;;;13.27;72.90
47913;BME280;33676;51.006;17.180;2022-07-29T02:55:40;100415.44;;;13.20;73.22
47913;BME280;33676;51.006;17.180;2022-07-29T03:01:18;100417.35;;;13.14;73.48
47913;BME280;33676;51.006;17.180;2022-07-29T03:03:52;100416.34;;;13.12;73.66
47913;BME280;33676;51.006;17.180;2022-07-29T03:06:24;100418.65;;;13.09;73.75
47913;BME280;33676;51.006;17.180;2022-07-29T03:09:10;100418.56;;;13.08;73.95
47913;BME280;33676;51.006;17.180;2022-07-29T03:11:42;100418.44;;;13.06;73.86
47913;BME280;33676;51.006;17.180;2022-07-29T03:14:18;100415.98;;;13.04;74.12
47913;BME280;33676;51.006;17.180;2022-07-29T03:16:49;100417.13;;;13.03;74.36
47913;BME280;33676;51.006;17.180;2022-07-29T03:19:19;100419.95;;;13.02;74.50
47913;BME280;33676;51.006;17.180;2022-07-29T03:21:48;100418.89;;;13.02;74.65
47913;BME280;33676;51.006;17.180;2022-07-29T03:24:32;100416.95;;;13.03;74.70
47913;BME280;33676;51.006;17.180;2022-07-29T03:27:03;100414.05;;;13.02;74.88
47913;BME280;33676;51.006;17.180;2022-07-29T03:29:32;100412.57;;;13.01;75.00
47913;BME280;33676;51.006;17.180;2022-07-29T03:32:04;100414.30;;;12.99;75.10
47913;BME280;33676;51.006;17.180;2022-07-29T03:34:36;100420.32;;;12.99;75.23
47913;BME280;33676;51.006;17.180;2022-07-29T03:37:06;100422.77;;;12.99;75.31
47913;BME280;33676;51.006;17.180;2022-07-29T03:39:40;100425.83;;;13.00;75.32
47913;BME280;33676;51.006;17.180;2022-07-29T03:42:14;100429.55;;;13.01;75.58
47913;BME280;33676;51.006;17.180;2022-07-29T03:44:47;100430.59;;;13.03;75.62
47913;BME280;33676;51.006;17.180;2022-07-29T03:47:22;100432.60;;;13.07;75.74
47913;BME280;33676;51.006;17.180;2022-07-29T03:50:14;100433.41;;;13.09;75.82
47913;BME280;33676;51.006;17.180;2022-07-29T03:52:43;100435.95;;;13.10;75.97
47913;BME280;33676;51.006;17.180;2022-07-29T03:55:13;100441.70;;;13.13;75.87
47913;BME280;33676;51.006;17.180;2022-07-29T03:57:44;100438.17;;;13.15;75.95
47913;BME280;33676;51.006;17.180;2022-07-29T04:00:14;100441.23;;;13.18;76.05
47913;BME280;33676;51.006;17.180;2022-07-29T04:02:44;100440.41;;;13.22;76.11
47913;BME280;33676;51.006;17.180;2022-07-29T04:05:18;100438.36;;;13.26;76.18
47913;BME280;33676;51.006;17.180;2022-07-29T04:07:47;100436.86;;;13.29;76.30
47913;BME280;33676;51.006;17.180;2022-07-29T04:10:17;100436.41;;;13.32;76.39
47913;BME280;33676;51.006;17.180;2022-07-29T04:12:59;100433.53;;;13.35;76.48
47913;BME280;33676;51.006;17.180;2022-07-29T04:15:28;100429.26;;;13.39;76.71
47913;BME280;33676;51.006;17.180;2022-07-29T04:17:59;100432.27;;;13.47;76.70
47913;BME280;33676;51.006;17.180;2022-07-29T04:20:27;100435.80;;;13.54;76.88
47913;BME280;33676;51.006;17.180;2022-07-29T04:22:56;100435.27;;;13.63;76.88
47913;BME280;33676;51.006;17.180;2022-07-29T04:25:25;100430.73;;;13.72;77.07
47913;BME280;33676;51.006;17.180;2022-07-29T04:27:53;100428.38;;;13.83;77.33
47913;BME280;33676;51.006;17.180;2022-07-29T04:30:29;100421.80;;;13.94;77.40
47913;BME280;33676;51.006;17.180;2022-07-29T04:33:01;100422.64;;;14.05;77.32
47913;BME280;33676;51.006;17.180;2022-07-29T04:35:33;100423.23;;;14.18;77.50
47913;BME280;33676;51.006;17.180;2022-07-29T04:38:07;100424.05;;;14.32;77.33
47913;BME280;33676;51.006;17.180;2022-07-29T04:40:44;100424.27;;;14.47;77.48
47913;BME280;33676;51.006;17.180;2022-07-29T04:43:15;100424.61;;;14.63;77.30
47913;BME280;33676;51.006;17.180;2022-07-29T04:45:49;100425.73;;;14.79;77.38
47913;BME280;33676;51.006;17.180;2022-07-29T04:48:18;100428.21;;;14.96;77.45
47913;BME280;33676;51.006;17.180;2022-07-29T04:50:53;100429.38;;;15.15;77.28
47913;BME280;33676;51.006;17.180;2022-07-29T04:53:22;100424.89;;;15.32;77.37
47913;BME280;33676;51.006;17.180;2022-07-29T04:55:51;100430.86;;;15.51;77.32
47913;BME280;33676;51.006;17.180;2022-07-29T04:58:20;100430.98;;;15.68;77.52
47913;BME280;33676;51.006;17.180;2022-07-29T05:00:51;100424.02;;;15.87;77.44
47913;BME280;33676;51.006;17.180;2022-07-29T05:03:20;100425.13;;;16.06;77.39
47913;BME280;33676;51.006;17.180;2022-07-29T05:05:48;100420.61;;;16.25;77.45
47913;BME280;33676;51.006;17.180;2022-07-29T05:08:17;100419.30;;;16.45;77.08
47913;BME280;33676;51.006;17.180;2022-07-29T05:10:45;100417.19;;;16.62;76.80
47913;BME280;33676;51.006;17.180;2022-07-29T05:13:14;100421.05;;;16.80;76.30
47913;BME280;33676;51.006;17.180;2022-07-29T05:15:43;100425.64;;;16.95;76.14
47913;BME280;33676;51.006;17.180;2022-07-29T05:18:11;100431.66;;;17.10;76.04
47913;BME280;33676;51.006;17.180;2022-07-29T05:20:41;100443.23;;;17.25;75.80
47913;BME280;33676;51.006;17.180;2022-07-29T05:23:10;100438.10;;;17.38;75.45
47913;BME280;33676;51.006;17.180;2022-07-29T05:25:41;100437.70;;;17.51;75.08
47913;BME280;33676;51.006;17.180;2022-07-29T05:28:12;100432.05;;;17.64;75.01
47913;BME280;33676;51.006;17.180;2022-07-29T05:30:41;100428.73;;;17.77;74.68
47913;BME280;33676;51.006;17.180;2022-07-29T05:33:10;100428.73;;;17.89;74.38
47913;BME280;33676;51.006;17.180;2022-07-29T05:35:59;100426.87;;;18.01;73.97
47913;BME280;33676;51.006;17.180;2022-07-29T05:38:28;100425.73;;;18.12;73.60
47913;BME280;33676;51.006;17.180;2022-07-29T05:40:58;100424.35;;;18.23;73.39
47913;BME280;33676;51.006;17.180;2022-07-29T05:43:28;100417.48;;;18.36;73.23
47913;BME280;33676;51.006;17.180;2022-07-29T05:45:57;100421.04;;;18.50;73.09
47913;BME280;33676;51.006;17.180;2022-07-29T05:49:16;100426.16;;;18.71;72.88
47913;BME280;33676;51.006;17.180;2022-07-29T05:53:10;100422.79;;;18.92;72.52
47913;BME280;33676;51.006;17.180;2022-07-29T05:56:52;100424.63;;;19.17;72.04
47913;BME280;33676;51.006;17.180;2022-07-29T05:59:21;100423.17;;;19.31;71.83
47913;BME280;33676;51.006;17.180;2022-07-29T06:01:57;100417.23;;;19.46;71.35
47913;BME280;33676;51.006;17.180;2022-07-29T06:04:26;100416.65;;;19.56;71.03
47913;BME280;33676;51.006;17.180;2022-07-29T06:06:54;100419.60;;;19.66;70.69
47913;BME280;33676;51.006;17.180;2022-07-29T06:09:23;100417.22;;;19.74;70.36
47913;BME280;33676;51.006;17.180;2022-07-29T06:11:52;100415.65;;;19.83;70.23
47913;BME280;33676;51.006;17.180;2022-07-29T06:14:20;100413.55;;;19.91;69.89
47913;BME280;33676;51.006;17.180;2022-07-29T06:16:49;100417.08;;;20.00;69.58
47913;BME280;33676;51.006;17.180;2022-07-29T06:19:18;100416.69;;;20.10;69.43
47913;BME280;33676;51.006;17.180;2022-07-29T06:21:47;100412.80;;;20.22;69.18
47913;BME280;33676;51.006;17.180;2022-07-29T06:24:16;100411.91;;;20.37;69.08
47913;BME280;33676;51.006;17.180;2022-07-29T06:26:46;100408.44;;;20.54;68.96
47913;BME280;33676;51.006;17.180;2022-07-29T06:29:14;100411.95;;;20.74;68.69
47913;BME280;33676;51.006;17.180;2022-07-29T06:31:43;100414.31;;;20.91;68.37
47913;BME280;33676;51.006;17.180;2022-07-29T06:34:11;100416.61;;;21.07;68.11
47913;BME280;33676;51.006;17.180;2022-07-29T06:36:41;100420.05;;;21.24;67.78
47913;BME280;33676;51.006;17.180;2022-07-29T06:39:09;100418.33;;;21.37;67.57
47913;BME280;33676;51.006;17.180;2022-07-29T06:41:39;100419.30;;;21.49;67.12
47913;BME280;33676;51.006;17.180;2022-07-29T06:44:08;100424.65;;;21.60;66.87
47913;BME280;33676;51.006;17.180;2022-07-29T06:46:37;100426.80;;;21.71;66.57
47913;BME280;33676;51.006;17.180;2022-07-29T06:49:06;100425.61;;;21.84;66.35
47913;BME280;33676;51.006;17.180;2022-07-29T06:51:35;100428.67;;;21.98;66.10
47913;BME280;33676;51.006;17.180;2022-07-29T06:54:04;100428.69;;;22.16;65.85
47913;BME280;33676;51.006;17.180;2022-07-29T06:56:34;100424.56;;;22.32;65.63
47913;BME280;33676;51.006;17.180;2022-07-29T06:59:09;100429.04;;;22.49;65.36
47913;BME280;33676;51.006;17.180;2022-07-29T07:01:43;100426.09;;;22.65;65.34
47913;BME280;33676;51.006;17.180;2022-07-29T07:04:12;100430.80;;;22.81;65.08
47913;BME280;33676;51.006;17.180;2022-07-29T07:06:42;100427.14;;;22.97;64.78
47913;BME280;33676;51.006;17.180;2022-07-29T07:09:10;100425.06;;;23.12;64.71
47913;BME280;33676;51.006;17.180;2022-07-29T07:11:39;100422.95;;;23.26;64.20
47913;BME280;33676;51.006;17.180;2022-07-29T07:14:08;100424.23;;;23.36;63.75
47913;BME280;33676;51.006;17.180;2022-07-29T07:16:36;100423.55;;;23.46;63.37
47913;BME280;33676;51.006;17.180;2022-07-29T07:19:05;100424.61;;;23.51;63.00
47913;BME280;33676;51.006;17.180;2022-07-29T07:21:33;100422.13;;;23.59;62.99
47913;BME280;33676;51.006;17.180;2022-07-29T07:24:03;100417.55;;;23.70;62.92
47913;BME280;33676;51.006;17.180;2022-07-29T07:26:32;100414.73;;;23.82;62.80
47913;BME280;33676;51.006;17.180;2022-07-29T07:29:01;100408.16;;;23.95;62.44
47913;BME280;33676;51.006;17.180;2022-07-29T07:31:30;100402.29;;;24.09;62.57
47913;BME280;33676;51.006;17.180;2022-07-29T07:33:59;100403.69;;;24.26;62.48
47913;BME280;33676;51.006;17.180;2022-07-29T07:36:28;100401.02;;;24.43;62.44
47913;BME280;33676;51.006;17.180;2022-07-29T07:38:56;100401.77;;;24.61;62.25
47913;BME280;33676;51.006;17.180;2022-07-29T07:41:25;100400.45;;;24.78;62.03
47913;BME280;33676;51.006;17.180;2022-07-29T07:44:00;100399.84;;;24.95;61.80
47913;BME280;33676;51.006;17.180;2022-07-29T07:46:28;100399.36;;;25.07;61.34
47913;BME280;33676;51.006;17.180;2022-07-29T07:48:57;100401.23;;;25.18;61.56
47913;BME280;33676;51.006;17.180;2022-07-29T07:51:25;100400.33;;;25.27;61.14
47913;BME280;33676;51.006;17.180;2022-07-29T07:53:55;100397.09;;;25.34;61.21
47913;BME280;33676;51.006;17.180;2022-07-29T07:56:24;100403.11;;;25.46;61.24
47913;BME280;33676;51.006;17.180;2022-07-29T07:58:53;100400.10;;;25.58;61.05
47913;BME280;33676;51.006;17.180;2022-07-29T08:01:22;100402.25;;;25.70;61.15
47913;BME280;33676;51.006;17.180;2022-07-29T08:03:51;100404.23;;;25.85;60.98
47913;BME280;33676;51.006;17.180;2022-07-29T08:06:20;100401.50;;;26.03;61.23
47913;BME280;33676;51.006;17.180;2022-07-29T08:08:48;100406.46;;;26.22;60.75
47913;BME280;33676;51.006;17.180;2022-07-29T08:11:17;100411.02;;;26.41;60.76
47913;BME280;33676;51.006;17.180;2022-07-29T08:13:45;100414.09;;;26.61;60.54
47913;BME280;33676;51.006;17.180;2022-07-29T08:16:15;100407.38;;;26.79;60.30
47913;BME280;33676;51.006;17.180;2022-07-29T08:18:45;100411.77;;;26.93;59.86
47913;BME280;33676;51.006;17.180;2022-07-29T08:21:15;100408.52;;;27.06;59.79
47913;BME280;33676;51.006;17.180;2022-07-29T08:23:44;100407.02;;;27.21;59.49
47913;BME280;33676;51.006;17.180;2022-07-29T08:26:25;100401.48;;;27.31;59.00
47913;BME280;33676;51.006;17.180;2022-07-29T08:28:53;100399.02;;;27.47;59.17
47913;BME280;33676;51.006;17.180;2022-07-29T08:31:22;100398.01;;;27.60;59.05
47913;BME280;33676;51.006;17.180;2022-07-29T08:33:50;100394.17;;;27.71;58.79
47913;BME280;33676;51.006;17.180;2022-07-29T08:36:19;100389.48;;;27.79;58.65
47913;BME280;33676;51.006;17.180;2022-07-29T08:38:49;100389.77;;;27.81;58.20
47913;BME280;33676;51.006;17.180;2022-07-29T08:41:20;100393.39;;;27.84;58.04
47913;BME280;33676;51.006;17.180;2022-07-29T08:44:00;100392.73;;;27.85;57.81
47913;BME280;33676;51.006;17.180;2022-07-29T08:46:28;100394.70;;;27.84;57.66
47913;BME280;33676;51.006;17.180;2022-07-29T08:48:57;100395.70;;;27.84;57.48
47913;BME280;33676;51.006;17.180;2022-07-29T08:51:26;100397.78;;;27.83;57.62
47913;BME280;33676;51.006;17.180;2022-07-29T08:53:56;100397.14;;;27.85;57.55
47913;BME280;33676;51.006;17.180;2022-07-29T08:56:25;100392.84;;;27.89;57.51
47913;BME280;33676;51.006;17.180;2022-07-29T08:58:54;100390.60;;;27.92;57.27
47913;BME280;33676;51.006;17.180;2022-07-29T09:01:29;100383.61;;;27.99;57.57
47913;BME280;33676;51.006;17.180;2022-07-29T09:04:08;100383.17;;;28.08;57.67
47913;BME280;33676;51.006;17.180;2022-07-29T09:06:42;100384.05;;;28.16;57.52
47913;BME280;33676;51.006;17.180;2022-07-29T09:09:13;100380.66;;;28.26;57.66
47913;BME280;33676;51.006;17.180;2022-07-29T09:11:42;100379.05;;;28.39;57.63
47913;BME280;33676;51.006;17.180;2022-07-29T09:14:13;100381.54;;;28.55;57.82
47913;BME280;33676;51.006;17.180;2022-07-29T09:19:28;100379.80;;;28.83;57.45
47913;BME280;33676;51.006;17.180;2022-07-29T09:22:00;100381.52;;;28.93;57.25
47913;BME280;33676;51.006;17.180;2022-07-29T09:24:43;100379.77;;;29.06;57.23
47913;BME280;33676;51.006;17.180;2022-07-29T09:27:22;100381.59;;;29.20;56.96
47913;BME280;33676;51.006;17.180;2022-07-29T09:30:08;100379.85;;;29.30;56.85
47913;BME280;33676;51.006;17.180;2022-07-29T09:32:58;100377.73;;;29.40;56.72
47913;BME280;33676;51.006;17.180;2022-07-29T09:35:30;100376.50;;;29.44;56.31
47913;BME280;33676;51.006;17.180;2022-07-29T09:38:10;100376.81;;;29.44;56.06
47913;BME280;33676;51.006;17.180;2022-07-29T09:40:39;100376.73;;;29.41;55.75
47913;BME280;33676;51.006;17.180;2022-07-29T09:43:13;100370.92;;;29.40;55.80
47913;BME280;33676;51.006;17.180;2022-07-29T09:45:42;100370.91;;;29.40;55.87
47913;BME280;33676;51.006;17.180;2022-07-29T09:48:28;100372.34;;;29.35;55.60
47913;BME280;33676;51.006;17.180;2022-07-29T09:50:57;100373.05;;;29.31;55.56
47913;BME280;33676;51.006;17.180;2022-07-29T09:53:36;100367.36;;;29.27;55.60
47913;BME280;33676;51.006;17.180;2022-07-29T09:56:05;100366.23;;;29.24;55.75
47913;BME280;33676;51.006;17.180;2022-07-29T09:58:34;100364.08;;;29.27;55.89
47913;BME280;33676;51.006;17.180;2022-07-29T10:01:02;100359.86;;;29.30;56.00
47913;BME280;33676;51.006;17.180;2022-07-29T10:03:32;100360.98;;;29.34;55.79
47913;BME280;33676;51.006;17.180;2022-07-29T10:06:11;100353.04;;;29.34;55.79
47913;BME280;33676;51.006;17.180;2022-07-29T10:08:42;100355.64;;;29.35;55.81
47913;BME280;33676;51.006;17.180;2022-07-29T10:11:18;100352.00;;;29.37;55.81
47913;BME280;33676;51.006;17.180;2022-07-29T10:13:48;100355.34;;;29.36;55.89
47913;BME280;33676;51.006;17.180;2022-07-29T10:16:17;100354.23;;;29.37;56.01
47913;BME280;33676;51.006;17.180;2022-07-29T10:18:46;100352.55;;;29.40;55.82
47913;BME280;33676;51.006;17.180;2022-07-29T10:21:15;100349.96;;;29.41;55.82
47913;BME280;33676;51.006;17.180;2022-07-29T10:24:04;100348.28;;;29.46;55.85
47913;BME280;33676;51.006;17.180;2022-07-29T10:26:42;100351.45;;;29.51;55.69
47913;BME280;33676;51.006;17.180;2022-07-29T10:29:10;100350.74;;;29.54;55.58
47913;BME280;33676;51.006;17.180;2022-07-29T10:35:12;100344.68;;;29.62;55.41
47913;BME280;33676;51.006;17.180;2022-07-29T10:44:13;100343.96;;;29.75;54.99
47913;BME280;33676;51.006;17.180;2022-07-29T10:46:46;100349.51;;;29.79;54.84
47913;BME280;33676;51.006;17.180;2022-07-29T10:49:21;100347.78;;;29.86;54.66
47913;BME280;33676;51.006;17.180;2022-07-29T10:52:06;100347.52;;;29.75;54.56
47913;BME280;33676;51.006;17.180;2022-07-29T10:54:40;100342.94;;;29.76;54.82
47913;BME280;33676;51.006;17.180;2022-07-29T10:57:30;100339.64;;;29.94;55.07
47913;BME280;33676;51.006;17.180;2022-07-29T11:00:29;100338.30;;;30.20;55.02
47913;BME280;33676;51.006;17.180;2022-07-29T11:02:58;100335.23;;;30.43;54.91
47913;BME280;33676;51.006;17.180;2022-07-29T11:05:52;100339.23;;;30.71;54.78
47913;BME280;33676;51.006;17.180;2022-07-29T11:08:24;100334.04;;;31.10;54.85
47913;BME280;33676;51.006;17.180;2022-07-29T11:13:51;100337.62;;;31.69;53.86
47913;BME280;33676;51.006;17.180;2022-07-29T11:16:22;100334.24;;;31.86;53.33
47913;BME280;33676;51.006;17.180;2022-07-29T11:21:45;100331.41;;;31.85;52.67
47913;BME280;33676;51.006;17.180;2022-07-29T11:24:29;100328.94;;;31.92;52.58
47913;BME280;33676;51.006;17.180;2022-07-29T11:27:18;100328.29;;;32.21;52.58
47913;BME280;33676;51.006;17.180;2022-07-29T11:29:53;100327.20;;;32.63;52.63
47913;BME280;33676;51.006;17.180;2022-07-29T11:32:25;100327.21;;;32.96;52.27
47913;BME280;33676;51.006;17.180;2022-07-29T11:35:17;100324.16;;;33.09;52.18
47913;BME280;33676;51.006;17.180;2022-07-29T11:43:55;100334.21;;;33.88;51.78
47913;BME280;33676;51.006;17.180;2022-07-29T11:46:49;100332.98;;;33.99;51.48
47913;BME280;33676;51.006;17.180;2022-07-29T11:49:27;100337.11;;;34.01;51.17
47913;BME280;33676;51.006;17.180;2022-07-29T11:52:00;100332.52;;;34.05;50.90
47913;BME280;33676;51.006;17.180;2022-07-29T11:54:34;100332.48;;;34.06;50.62
47913;BME280;33676;51.006;17.180;2022-07-29T11:57:22;100329.92;;;33.99;50.11
47913;BME280;33676;51.006;17.180;2022-07-29T12:00:07;100326.00;;;33.99;50.10
47913;BME280;33676;51.006;17.180;2022-07-29T12:02:45;100329.30;;;33.63;49.27
47913;BME280;33676;51.006;17.180;2022-07-29T12:05:17;100323.73;;;33.13;49.22
47913;BME280;33676;51.006;17.180;2022-07-29T12:08:11;100327.88;;;32.75;49.60
47913;BME280;33676;51.006;17.180;2022-07-29T12:10:43;100327.36;;;32.51;49.90
47913;BME280;33676;51.006;17.180;2022-07-29T12:13:13;100322.72;;;32.32;50.42
47913;BME280;33676;51.006;17.180;2022-07-29T12:15:50;100317.44;;;32.19;50.35
47913;BME280;33676;51.006;17.180;2022-07-29T12:18:20;100312.72;;;32.08;50.42
47913;BME280;33676;51.006;17.180;2022-07-29T12:21:00;100309.39;;;31.99;50.34
47913;BME280;33676;51.006;17.180;2022-07-29T12:23:32;100312.52;;;31.82;50.57
47913;BME280;33676;51.006;17.180;2022-07-29T12:26:06;100314.67;;;31.75;50.78
47913;BME280;33676;51.006;17.180;2022-07-29T12:28:49;100310.00;;;31.74;50.72
47913;BME280;33676;51.006;17.180;2022-07-29T12:31:18;100305.52;;;31.65;50.77
47913;BME280;33676;51.006;17.180;2022-07-29T12:34:06;100298.33;;;31.50;50.88
47913;BME280;33676;51.006;17.180;2022-07-29T12:36:35;100299.48;;;31.36;50.84
47913;BME280;33676;51.006;17.180;2022-07-29T12:39:04;100298.73;;;31.20;51.21
47913;BME280;33676;51.006;17.180;2022-07-29T12:41:33;100298.51;;;31.11;51.32
47913;BME280;33676;51.006;17.180;2022-07-29T12:44:03;100296.74;;;31.04;51.48
47913;BME280;33676;51.006;17.180;2022-07-29T12:46:32;100295.99;;;30.95;51.69
47913;BME280;33676;51.006;17.180;2022-07-29T12:49:01;100287.27;;;30.86;51.66
47913;BME280;33676;51.006;17.180;2022-07-29T12:51:39;100290.77;;;30.77;51.84
47913;BME280;33676;51.006;17.180;2022-07-29T12:54:10;100287.16;;;30.64;52.02
47913;BME280;33676;51.006;17.180;2022-07-29T12:56:40;100284.88;;;30.55;52.21
47913;BME280;33676;51.006;17.180;2022-07-29T12:59:16;100283.71;;;30.50;52.51
47913;BME280;33676;51.006;17.180;2022-07-29T13:01:51;100283.01;;;30.46;52.56
47913;BME280;33676;51.006;17.180;2022-07-29T13:04:30;100282.13;;;30.42;52.67
47913;BME280;33676;51.006;17.180;2022-07-29T13:07:01;100279.86;;;30.35;52.72
47913;BME280;33676;51.006;17.180;2022-07-29T13:09:41;100279.11;;;30.31;52.76
47913;BME280;33676;51.006;17.180;2022-07-29T13:12:13;100279.61;;;30.28;52.57
47913;BME280;33676;51.006;17.180;2022-07-29T13:14:47;100275.63;;;30.26;52.53
47913;BME280;33676;51.006;17.180;2022-07-29T13:17:22;100272.86;;;30.33;52.81
47913;BME280;33676;51.006;17.180;2022-07-29T13:20:13;100270.11;;;30.49;52.88
47913;BME280;33676;51.006;17.180;2022-07-29T13:22:42;100267.85;;;30.69;52.86
47913;BME280;33676;51.006;17.180;2022-07-29T13:25:11;100261.92;;;30.86;52.76
47913;BME280;33676;51.006;17.180;2022-07-29T13:27:39;100261.31;;;30.99;52.95
47913;BME280;33676;51.006;17.180;2022-07-29T13:30:09;100256.95;;;31.07;52.85
47913;BME280;33676;51.006;17.180;2022-07-29T13:32:39;100254.75;;;31.22;52.81
47913;BME280;33676;51.006;17.180;2022-07-29T13:35:08;100255.36;;;31.46;53.06
47913;BME280;33676;51.006;17.180;2022-07-29T13:37:38;100250.06;;;31.66;52.81
47913;BME280;33676;51.006;17.180;2022-07-29T13:40:08;100250.23;;;31.71;52.51
47913;BME280;33676;51.006;17.180;2022-07-29T13:42:38;100254.77;;;31.68;52.25
47913;BME280;33676;51.006;17.180;2022-07-29T13:45:09;100255.74;;;31.65;52.06
47913;BME280;33676;51.006;17.180;2022-07-29T13:47:39;100251.31;;;31.59;52.04
47913;BME280;33676;51.006;17.180;2022-07-29T13:50:14;100246.37;;;31.52;52.26
47913;BME280;33676;51.006;17.180;2022-07-29T13:52:43;100248.63;;;31.44;52.20
47913;BME280;33676;51.006;17.180;2022-07-29T13:55:11;100250.70;;;31.35;52.18